• Join FlightAware (Why Join?)
  • Login
  • US Flag 
02:50AM EDT


 

Airport Tracker/Info


-or-


 

Live Flight TrackerFlight Track Log ✈ ASQ6115 ✈ 18-Nov-2013 ✈ KORD - KMSN

Flight Track Log - Related Links

Times and Time Zones

All times are in EST time to prevent confusion due to time zone crossing. See the ASQ6115 flight status page for this flight to view local times or setup timezone preferences in your user account.

Time Position Orientation Groundspeed Altitude Reporting Facility
EST Latitude Longitude Course Direction KTS MPH feet Rate Location/Type
07:45PM 42.0167 -87.9667 346° North 168 193 3,200  Level Chicago TRACON
07:46PM 42.0667 -88.0000 334° Northwest 226 260 4,900 900 Climbing Chicago TRACON
07:47PM 42.1333 -88.0167 349° North 228 262 5,000 420 Climbing Chicago TRACON
07:48PM 42.1833 -88.0167 360° North 233 268 5,800 1,620 Climbing Chicago TRACON
07:49PM 42.2736 -88.0161 360° North 238 274 9,000 2,280 Climbing Chicago Center
07:50PM 42.3226 -88.3226 346° North  Level Estimated
07:50PM 42.3436 -88.0106 North 248 285 11,400  Level Chicago Center
07:51PM 42.4200 -88.0011 North 277 319 12,000 240 Climbing Chicago Center
07:52PM 42.5100 -87.9897 North 322 371 12,000  Level Chicago Center
07:53PM 42.6039 -87.9803 North 337 388 12,000  Level Chicago Center
07:54PM 42.7036 -88.0308 340° North 333 383 12,000 -360 Level Chicago Center
07:55PM 42.7622 -88.1181 312° West 317 365 11,300 -900 Descending Chicago Center
07:56PM 42.7992 -88.2333 294° West 329 379 10,200 -660 Descending Chicago Center
07:57PM 42.8344 -88.3461 293° West 324 373 10,000 -120 Descending Chicago Center
07:58PM 42.8683 -88.4553 293° West 316 364 10,000  Level Chicago Center
07:59PM 42.9028 -88.5639 293° West 312 359 10,000  Level Chicago Center
08:00PM 42.9439 -88.6928 294° West 308 354 10,000 -60 Level Chicago Center
08:01PM 42.9769 -88.7994 293° West 305 351 9,900 -600 Descending Chicago Center
08:02PM 42.9903 -88.8942 281° West 254 292 8,800 -1,380 Descending Chicago Center
08:03PM 43.0014 -88.9867 279° West 247 284 7,100 -1,320 Descending Chicago Center
08:04PM 43.0117 -89.0736 279° West 236 272 6,100 -1,320 Descending Chicago Center
08:05PM 43.0236 -89.1589 281° West 233 268 4,400 -1,560 Descending Chicago Center
08:07PM 43.0339 -89.2561 278° West 225 259 2,900 -780 Descending Chicago Center
08:08PM 43.0500 -89.3169 290° West 194 223 2,800 -480 Descending Chicago Center
08:09PM 43.0761 -89.3433 324° Northwest 152 175 2,000 -720 Descending Chicago Center
08:10PM 43.1086 -89.3447 358° North 131 151 1,400 -420 Descending Chicago Center
08:11PM 43.1406 -89.3442 North 128 147 1,200 -240 Descending Chicago Center